Pacific Pathfinder — PATH — position and weather

sailwx.info

Track history (hours):
 
Tides and Currents Weather Stations Pressure Air Temp Water Temp Dewpoint Dewpoint Depression Visibility Wind Speed Wind Dir Waves Ship Positions

Pacific Pathfinder

Last reported at 2015-Feb-25 11:16 UTC. Time now 2015-May-25 07:33 UTC.
Position N 54°18' W 130°21'.
Warning: this ship's position is months out of date.

Length 22 m; draft 1.3 m.

Type: Pilot. MMSI: 316003484.

Date/timePositionNaut miles runAvg speedWind from/ knotsBaromVisibWave heightAir tempDewpointWater temp
2015-Feb-25 11:16N 54°18' W 130°21'0 0.0
2015-Feb-25 10:33N 54°18' W 130°21'0 0.0
2015-Feb-25 09:33N 54°18' W 130°21'0 0.0
2015-Feb-25 08:33N 54°18' W 130°21'0 0.0
2015-Feb-25 07:33N 54°18' W 130°21'0 0.0
2015-Feb-25 06:33N 54°18' W 130°21'0 0.0
2015-Feb-25 05:33N 54°18' W 130°21'0 0.0
2015-Feb-25 04:33N 54°18' W 130°21'0 0.0
2015-Feb-25 03:33N 54°18' W 130°21'0 0.0
2015-Feb-25 02:33N 54°18' W 130°21'0 0.0
2015-Feb-25 01:33N 54°18' W 130°21'10 9.8
2015-Feb-25 00:33N 54°16' W 130°38'2 2.0
2015-Feb-24 23:32N 54°16' W 130°41'11 9.9
2015-Feb-24 22:28N 54°14' W 130°24'5 5.6
2015-Feb-24 21:33N 54°18' W 130°21'1 0.7
2015-Feb-24 20:33N 54°19' W 130°20'1 1.4
2015-Feb-24 19:33N 54°18' W 130°21'0 0.0
2015-Feb-24 18:33N 54°18' W 130°21'0 0.0
2015-Feb-24 17:33N 54°18' W 130°21'0 0.0
2015-Feb-24 16:33N 54°18' W 130°21'0 0.0
2015-Feb-24 15:33N 54°18' W 130°21'0 0.0
2015-Feb-24 14:33N 54°18' W 130°21'0 0.0
2015-Feb-24 13:33N 54°18' W 130°21'0 0.0
2015-Feb-24 12:33N 54°18' W 130°21'0 0.0
2015-Feb-24 11:33N 54°18' W 130°21'0 0.0
2015-Feb-24 10:33N 54°18' W 130°21'0 0.0
2015-Feb-24 09:33N 54°18' W 130°21'0 0.0
2015-Feb-24 08:33N 54°18' W 130°21'4 4.1
2015-Feb-24 07:33N 54°20' W 130°27'1614.8
2015-Feb-24 06:29N 54°19' W 130°54'1819.3
2015-Feb-24 05:33N 54°19' W 130°24'2 1.6
2015-Feb-24 04:33N 54°18' W 130°22'5 4.9
2015-Feb-24 03:32N 54°13' W 130°25'5 5.2
2015-Feb-24 02:33N 54°18' W 130°21'0 0.0
2015-Feb-24 01:33N 54°18' W 130°21'0 0.0
2015-Feb-24 00:33N 54°18' W 130°21'0 0.0
2015-Feb-23 23:33N 54°18' W 130°21'0 0.0
2015-Feb-23 22:33N 54°18' W 130°21'5 5.3
2015-Feb-23 21:33N 54°14' W 130°28'8 7.6
2015-Feb-23 20:33N 54°16' W 130°41'1211.7
2015-Feb-23 19:33N 54°18' W 130°21'6 5.6
2015-Feb-23 18:33N 54°14' W 130°29'1312.6
2015-Feb-23 17:32N 54°18' W 130°50'1717.0
2015-Feb-23 16:33N 54°18' W 130°21'0 0.0
2015-Feb-23 15:33N 54°18' W 130°21'0 0.0
2015-Feb-23 14:33N 54°18' W 130°21'0 0.0
2015-Feb-23 13:33N 54°18' W 130°21'4 3.7
2015-Feb-23 12:33N 54°14' W 130°22'4 3.7
2015-Feb-23 11:33N 54°18' W 130°21'0 0.0
2015-Feb-23 10:33N 54°18' W 130°21'0 0.0
2015-Feb-23 09:33N 54°18' W 130°21'0 0.0
2015-Feb-23 08:33N 54°18' W 130°21'0 0.0
2015-Feb-23 07:33N 54°18' W 130°21'0 0.0
2015-Feb-23 06:33N 54°18' W 130°21'1414.0
2015-Feb-23 05:33N 54°17' W 130°45'9 8.9
2015-Feb-23 04:33N 54°19' W 130°30'5 5.2
2015-Feb-23 03:33N 54°18' W 130°21'0 0.0
2015-Feb-23 02:33N 54°18' W 130°21'0 0.0
2015-Feb-23 01:33N 54°18' W 130°21'0 0.0
2015-Feb-23 00:33N 54°18' W 130°21'0 0.0
2015-Feb-22 23:33N 54°18' W 130°21'0 0.0
2015-Feb-22 22:33N 54°18' W 130°21'0 0.0
2015-Feb-22 21:33N 54°18' W 130°21'2 1.6
2015-Feb-22 20:33N 54°19' W 130°20'2 1.6
2015-Feb-22 19:33N 54°18' W 130°21'0 0.0
2015-Feb-22 18:33N 54°18' W 130°21'0 0.0
2015-Feb-22 17:33N 54°18' W 130°21'0 0.0
2015-Feb-22 16:33N 54°18' W 130°21'0 0.0
2015-Feb-22 15:33N 54°18' W 130°21'0 0.0
2015-Feb-22 14:33N 54°18' W 130°21'0 0.0
2015-Feb-22 13:33N 54°18' W 130°21'0 0.0
2015-Feb-22 12:33N 54°18' W 130°21'0 0.0
2015-Feb-22 11:33N 54°18' W 130°21'0 0.0
2015-Feb-22 10:33N 54°18' W 130°21'1514.7
2015-Feb-22 09:33N 54°18' W 130°46'1514.2
2015-Feb-22 08:31N 54°12' W 130°23'6 5.8
2015-Feb-22 07:33N 54°18' W 130°21'0 0.0
2015-Feb-22 06:33N 54°18' W 130°21'0 0.0
2015-Feb-22 05:33N 54°18' W 130°21'0 0.0
2015-Feb-22 04:33N 54°18' W 130°21'0 0.0
2015-Feb-22 03:33N 54°18' W 130°21'0 0.0
2015-Feb-22 02:33N 54°18' W 130°21'0 0.0
2015-Feb-22 01:33N 54°18' W 130°21'6 5.8
2015-Feb-22 00:33N 54°14' W 130°30'9 9.0
2015-Feb-21 23:33N 54°16' W 130°45'1413.9
2015-Feb-21 22:33N 54°18' W 130°21'0 0.0
2015-Feb-21 21:33N 54°18' W 130°21'0 0.0
2015-Feb-21 20:33N 54°18' W 130°21'0 0.0
2015-Feb-21 19:33N 54°18' W 130°21'0 0.0
2015-Feb-21 18:33N 54°18' W 130°21'0 0.0
2015-Feb-21 17:33N 54°18' W 130°21'0 0.0
2015-Feb-21 16:33N 54°18' W 130°21'0 0.0
2015-Feb-21 15:33N 54°18' W 130°21'0 0.0
2015-Feb-21 14:33N 54°18' W 130°21'0 0.0
2015-Feb-21 13:33N 54°18' W 130°21'0 0.0
2015-Feb-21 12:33N 54°18' W 130°21'0 0.0
2015-Feb-21 11:33N 54°18' W 130°21'0 0.0
2015-Feb-21 10:33N 54°18' W 130°21'0 0.0
2015-Feb-21 09:32N 54°18' W 130°21'0 0.0
2015-Feb-21 08:33N 54°18' W 130°21'0 0.0
2015-Feb-21 07:33N 54°18' W 130°21'5 5.2
2015-Feb-21 06:33N 54°14' W 130°27'9 8.5
2015-Feb-21 05:33N 54°14' W 130°42'1211.7
2015-Feb-21 04:32N 54°16' W 130°21'2 2.1
2015-Feb-21 03:33N 54°18' W 130°21'10 9.9
2015-Feb-21 02:33N 54°15' W 130°38'1 1.1
2015-Feb-21 01:33N 54°15' W 130°39'1110.7
2015-Feb-21 00:33N 54°18' W 130°21'0 0.0
2015-Feb-20 23:33N 54°18' W 130°21'0 0.0
2015-Feb-20 22:33N 54°18' W 130°21'0 0.0
2015-Feb-20 21:33N 54°18' W 130°21'0 0.0
2015-Feb-20 20:33N 54°18' W 130°21'1 0.7
2015-Feb-20 19:33N 54°18' W 130°21'1 1.5
2015-Feb-20 18:33N 54°19' W 130°19'2 2.1
2015-Feb-20 17:33N 54°18' W 130°21'6 6.1
2015-Feb-20 16:33N 54°14' W 130°30'10 8.0
2015-Feb-20 15:20N 54°16' W 130°47'2 2.1
2015-Feb-20 14:31N 54°16' W 130°44'5 5.3
2015-Feb-20 13:33N 54°14' W 130°35'9 4.5
2015-Feb-20 11:33N 54°18' W 130°21'1010.1
2015-Feb-20 10:32N 54°14' W 130°38'1 1.3
2015-Feb-20 09:33N 54°16' W 130°39'8 8.3
2015-Feb-20 08:33N 54°20' W 130°27'0 0.0
2015-Feb-20 07:33N 54°20' W 130°27'7 7.3
2015-Feb-20 06:32N 54°16' W 130°37'3 1.6
2015-Feb-20 04:31N 54°16' W 130°43'1313.0
2015-Feb-20 03:33N 54°18' W 130°21'0 0.0
2015-Feb-20 02:33N 54°18' W 130°21'0 0.0
2015-Feb-20 01:33N 54°18' W 130°21'0 0.0
2015-Feb-20 00:33N 54°18' W 130°21'0 0.0
2015-Feb-19 23:33N 54°18' W 130°21'0 0.0
2015-Feb-19 22:33N 54°18' W 130°21'0 0.0
2015-Feb-19 21:33N 54°18' W 130°21'4 3.8
2015-Feb-19 20:33N 54°20' W 130°27'1210.9
2015-Feb-19 19:26N 54°17' W 130°47'1416.2
2015-Feb-19 18:33N 54°17' W 130°22'0 0.3
2015-Feb-19 17:33N 54°18' W 130°21'0 0.0
2015-Feb-19 16:33N 54°18' W 130°21'0 0.0
2015-Feb-19 15:33N 54°18' W 130°21'0 0.0
2015-Feb-19 14:33N 54°18' W 130°21'0 0.0
2015-Feb-19 13:33N 54°18' W 130°21'0 0.0
2015-Feb-19 12:33N 54°18' W 130°21'0 0.0
2015-Feb-19 11:33N 54°18' W 130°21'0 0.0
2015-Feb-19 10:33N 54°18' W 130°21'0 0.0
2015-Feb-19 09:33N 54°18' W 130°21'0 0.0
2015-Feb-19 08:33N 54°18' W 130°21'0 0.0
2015-Feb-19 07:33N 54°18' W 130°21'0 0.0
2015-Feb-19 06:33N 54°18' W 130°21'0 0.0
2015-Feb-19 05:33N 54°18' W 130°21'7 3.6
2015-Feb-19 03:33N 54°14' W 130°32'7 7.3
2015-Feb-19 02:33N 54°18' W 130°21'0 0.0
2015-Feb-19 01:33N 54°18' W 130°21'0 0.0
2015-Feb-19 00:33N 54°18' W 130°21'2 2.0
2015-Feb-18 23:33N 54°19' W 130°19'9 9.1
2015-Feb-18 22:33N 54°18' W 130°35'8 2.4
2015-Feb-18 19:04N 54°18' W 130°49'714.4
2015-Feb-18 18:33N 54°16' W 130°37'9 9.5
2015-Feb-18 17:33N 54°18' W 130°21'0 0.0
2015-Feb-18 16:33N 54°18' W 130°21'0 0.0
2015-Feb-18 15:33N 54°18' W 130°21'0 0.0
2015-Feb-18 14:33N 54°18' W 130°21'0 0.0
2015-Feb-18 13:33N 54°18' W 130°21'0 0.0
2015-Feb-18 12:33N 54°18' W 130°21'0 0.0
2015-Feb-18 11:33N 54°18' W 130°21'7 6.6
2015-Feb-18 10:33N 54°14' W 130°31'7 6.7
2015-Feb-18 09:29N 54°17' W 130°42'1213.0
2015-Feb-18 08:33N 54°18' W 130°21'0 0.0
2015-Feb-18 07:33N 54°18' W 130°21'0 0.0
2015-Feb-18 06:34N 54°18' W 130°21'0 0.0
2015-Feb-18 05:33N 54°18' W 130°21'0 0.0
2015-Feb-18 04:33N 54°18' W 130°21'0 0.0
2015-Feb-18 03:33N 54°18' W 130°21'0 0.0
2015-Feb-18 02:33N 54°18' W 130°21'0 0.0
2015-Feb-18 01:33N 54°18' W 130°21'0 0.0
2015-Feb-18 00:33N 54°18' W 130°21'0 0.0
2015-Feb-17 23:33N 54°18' W 130°21'5 4.9
2015-Feb-17 22:32N 54°14' W 130°27'9 9.1
2015-Feb-17 21:33N 54°16' W 130°42'1211.9
2015-Feb-17 20:33N 54°17' W 130°22'1 1.2
2015-Feb-17 19:33N 54°18' W 130°21'0 0.0
2015-Feb-17 17:33N 54°18' W 130°21'0 0.0
2015-Feb-17 16:33N 54°18' W 130°21'0 0.0
2015-Feb-17 15:33N 54°18' W 130°21'9 3.9
2015-Feb-17 13:22N 54°10' W 130°28'11 5.7
2015-Feb-17 11:30N 54°16' W 130°43'1313.2
2015-Feb-17 10:33N 54°18' W 130°21'0 0.0
2015-Feb-17 09:33N 54°18' W 130°21'0 0.0
2015-Feb-17 08:33N 54°18' W 130°21'0 0.0
2015-Feb-17 07:33N 54°18' W 130°21'0 0.0
2015-Feb-17 06:33N 54°18' W 130°21'0 0.0
2015-Feb-17 05:33N 54°18' W 130°21'0 0.0
2015-Feb-17 04:33N 54°18' W 130°21'0 0.0
2015-Feb-17 03:33N 54°18' W 130°21'0 0.0
2015-Feb-17 02:33N 54°18' W 130°21'0 0.0
2015-Feb-17 01:33N 54°18' W 130°21'0 0.0
2015-Feb-17 00:33N 54°18' W 130°21'0 0.0
2015-Feb-16 23:33N 54°18' W 130°21'0 0.0
2015-Feb-16 22:33N 54°18' W 130°21'0 0.0
2015-Feb-16 21:33N 54°18' W 130°21'0 0.0
2015-Feb-16 20:33N 54°18' W 130°21'2 1.9
2015-Feb-16 19:33N 54°19' W 130°24'2 1.8
2015-Feb-16 18:33N 54°18' W 130°21'5 5.1
2015-Feb-16 17:33N 54°14' W 130°27'1212.1
2015-Feb-16 16:32N 54°17' W 130°47'1515.4
2015-Feb-16 15:33N 54°18' W 130°21'0 0.0
2015-Feb-16 14:33N 54°18' W 130°21'0 0.0
2015-Feb-16 13:33N 54°18' W 130°21'0 0.0
2015-Feb-16 12:33N 54°18' W 130°21'0 0.0
2015-Feb-16 11:33N 54°18' W 130°21'0 0.0
2015-Feb-16 10:33N 54°18' W 130°21'0 0.0
2015-Feb-16 09:33N 54°18' W 130°21'0 0.0
2015-Feb-16 08:33N 54°18' W 130°21'0 0.0
2015-Feb-16 07:33N 54°18' W 130°21'0 0.0
2015-Feb-16 06:33N 54°18' W 130°21'0 0.0
2015-Feb-16 05:33N 54°18' W 130°21'0 0.0
2015-Feb-16 04:33N 54°18' W 130°21'0 0.0
2015-Feb-16 03:33N 54°18' W 130°21'0 0.0
2015-Feb-16 02:33N 54°18' W 130°21'0 0.0
2015-Feb-16 01:33N 54°18' W 130°21'0 0.0
2015-Feb-16 00:33N 54°18' W 130°21'0 0.0
2015-Feb-15 23:33N 54°18' W 130°21'0 0.0
2015-Feb-15 22:33N 54°18' W 130°21'0 0.0
2015-Feb-15 21:32N 54°18' W 130°21'0 0.0
2015-Feb-15 20:33N 54°18' W 130°21'0 0.0
2015-Feb-15 19:33N 54°18' W 130°21'0 0.0
2015-Feb-15 18:33N 54°18' W 130°21'0 0.0
2015-Feb-15 17:33N 54°18' W 130°21'0 0.0
2015-Feb-15 16:33N 54°18' W 130°21'0 0.0
2015-Feb-15 15:33N 54°18' W 130°21'0 0.0
2015-Feb-15 14:33N 54°18' W 130°21'0 0.0
2015-Feb-15 13:33N 54°18' W 130°21'1514.4
2015-Feb-15 12:33N 54°19' W 130°46'8 8.2
2015-Feb-15 11:33N 54°14' W 130°35'  
Track history (hours):
 
Tides and Currents Weather Stations Pressure Air Temp Water Temp Dewpoint Dewpoint Depression Visibility Wind Speed Wind Dir Waves Ship Positions

Pacific Pathfinder

Last reported at 2015-Feb-25 11:16 UTC. Time now 2015-May-25 07:33 UTC.
Position N 54°18' W 130°21'.
Warning: this ship's position is months out of date.

Length 22 m; draft 1.3 m.

Type: Pilot. MMSI: 316003484.

Date/timePositionNaut miles runAvg speedWind from/ knotsBaromVisibWave heightAir tempDewpointWater temp
2015-Feb-25 11:16N 54°18' W 130°21'0 0.0
2015-Feb-25 10:33N 54°18' W 130°21'0 0.0
2015-Feb-25 09:33N 54°18' W 130°21'0 0.0
2015-Feb-25 08:33N 54°18' W 130°21'0 0.0
2015-Feb-25 07:33N 54°18' W 130°21'0 0.0
2015-Feb-25 06:33N 54°18' W 130°21'0 0.0
2015-Feb-25 05:33N 54°18' W 130°21'0 0.0
2015-Feb-25 04:33N 54°18' W 130°21'0 0.0
2015-Feb-25 03:33N 54°18' W 130°21'0 0.0
2015-Feb-25 02:33N 54°18' W 130°21'0 0.0
2015-Feb-25 01:33N 54°18' W 130°21'10 9.8
2015-Feb-25 00:33N 54°16' W 130°38'2 2.0
2015-Feb-24 23:32N 54°16' W 130°41'11 9.9
2015-Feb-24 22:28N 54°14' W 130°24'5 5.6
2015-Feb-24 21:33N 54°18' W 130°21'1 0.7
2015-Feb-24 20:33N 54°19' W 130°20'1 1.4
2015-Feb-24 19:33N 54°18' W 130°21'0 0.0
2015-Feb-24 18:33N 54°18' W 130°21'0 0.0
2015-Feb-24 17:33N 54°18' W 130°21'0 0.0
2015-Feb-24 16:33N 54°18' W 130°21'0 0.0
2015-Feb-24 15:33N 54°18' W 130°21'0 0.0
2015-Feb-24 14:33N 54°18' W 130°21'0 0.0
2015-Feb-24 13:33N 54°18' W 130°21'0 0.0
2015-Feb-24 12:33N 54°18' W 130°21'0 0.0
2015-Feb-24 11:33N 54°18' W 130°21'0 0.0
2015-Feb-24 10:33N 54°18' W 130°21'0 0.0
2015-Feb-24 09:33N 54°18' W 130°21'0 0.0
2015-Feb-24 08:33N 54°18' W 130°21'4 4.1
2015-Feb-24 07:33N 54°20' W 130°27'1614.8
2015-Feb-24 06:29N 54°19' W 130°54'1819.3
2015-Feb-24 05:33N 54°19' W 130°24'2 1.6
2015-Feb-24 04:33N 54°18' W 130°22'5 4.9
2015-Feb-24 03:32N 54°13' W 130°25'5 5.2
2015-Feb-24 02:33N 54°18' W 130°21'0 0.0
2015-Feb-24 01:33N 54°18' W 130°21'0 0.0
2015-Feb-24 00:33N 54°18' W 130°21'0 0.0
2015-Feb-23 23:33N 54°18' W 130°21'0 0.0
2015-Feb-23 22:33N 54°18' W 130°21'5 5.3
2015-Feb-23 21:33N 54°14' W 130°28'8 7.6
2015-Feb-23 20:33N 54°16' W 130°41'1211.7
2015-Feb-23 19:33N 54°18' W 130°21'6 5.6
2015-Feb-23 18:33N 54°14' W 130°29'1312.6
2015-Feb-23 17:32N 54°18' W 130°50'1717.0
2015-Feb-23 16:33N 54°18' W 130°21'0 0.0
2015-Feb-23 15:33N 54°18' W 130°21'0 0.0
2015-Feb-23 14:33N 54°18' W 130°21'0 0.0
2015-Feb-23 13:33N 54°18' W 130°21'4 3.7
2015-Feb-23 12:33N 54°14' W 130°22'4 3.7
2015-Feb-23 11:33N 54°18' W 130°21'0 0.0
2015-Feb-23 10:33N 54°18' W 130°21'0 0.0
2015-Feb-23 09:33N 54°18' W 130°21'0 0.0
2015-Feb-23 08:33N 54°18' W 130°21'0 0.0
2015-Feb-23 07:33N 54°18' W 130°21'0 0.0
2015-Feb-23 06:33N 54°18' W 130°21'1414.0
2015-Feb-23 05:33N 54°17' W 130°45'9 8.9
2015-Feb-23 04:33N 54°19' W 130°30'5 5.2
2015-Feb-23 03:33N 54°18' W 130°21'0 0.0
2015-Feb-23 02:33N 54°18' W 130°21'0 0.0
2015-Feb-23 01:33N 54°18' W 130°21'0 0.0
2015-Feb-23 00:33N 54°18' W 130°21'0 0.0
2015-Feb-22 23:33N 54°18' W 130°21'0 0.0
2015-Feb-22 22:33N 54°18' W 130°21'0 0.0
2015-Feb-22 21:33N 54°18' W 130°21'2 1.6
2015-Feb-22 20:33N 54°19' W 130°20'2 1.6
2015-Feb-22 19:33N 54°18' W 130°21'0 0.0
2015-Feb-22 18:33N 54°18' W 130°21'0 0.0
2015-Feb-22 17:33N 54°18' W 130°21'0 0.0
2015-Feb-22 16:33N 54°18' W 130°21'0 0.0
2015-Feb-22 15:33N 54°18' W 130°21'0 0.0
2015-Feb-22 14:33N 54°18' W 130°21'0 0.0
2015-Feb-22 13:33N 54°18' W 130°21'0 0.0
2015-Feb-22 12:33N 54°18' W 130°21'0 0.0
2015-Feb-22 11:33N 54°18' W 130°21'0 0.0
2015-Feb-22 10:33N 54°18' W 130°21'1514.7
2015-Feb-22 09:33N 54°18' W 130°46'1514.2
2015-Feb-22 08:31N 54°12' W 130°23'6 5.8
2015-Feb-22 07:33N 54°18' W 130°21'0 0.0
2015-Feb-22 06:33N 54°18' W 130°21'0 0.0
2015-Feb-22 05:33N 54°18' W 130°21'0 0.0
2015-Feb-22 04:33N 54°18' W 130°21'0 0.0
2015-Feb-22 03:33N 54°18' W 130°21'0 0.0
2015-Feb-22 02:33N 54°18' W 130°21'0 0.0
2015-Feb-22 01:33N 54°18' W 130°21'6 5.8
2015-Feb-22 00:33N 54°14' W 130°30'9 9.0
2015-Feb-21 23:33N 54°16' W 130°45'1413.9
2015-Feb-21 22:33N 54°18' W 130°21'0 0.0
2015-Feb-21 21:33N 54°18' W 130°21'0 0.0
2015-Feb-21 20:33N 54°18' W 130°21'0 0.0
2015-Feb-21 19:33N 54°18' W 130°21'0 0.0
2015-Feb-21 18:33N 54°18' W 130°21'0 0.0
2015-Feb-21 17:33N 54°18' W 130°21'0 0.0
2015-Feb-21 16:33N 54°18' W 130°21'0 0.0
2015-Feb-21 15:33N 54°18' W 130°21'0 0.0
2015-Feb-21 14:33N 54°18' W 130°21'0 0.0
2015-Feb-21 13:33N 54°18' W 130°21'0 0.0
2015-Feb-21 12:33N 54°18' W 130°21'0 0.0
2015-Feb-21 11:33N 54°18' W 130°21'0 0.0
2015-Feb-21 10:33N 54°18' W 130°21'0 0.0
2015-Feb-21 09:32N 54°18' W 130°21'0 0.0
2015-Feb-21 08:33N 54°18' W 130°21'0 0.0
2015-Feb-21 07:33N 54°18' W 130°21'5 5.2
2015-Feb-21 06:33N 54°14' W 130°27'9 8.5
2015-Feb-21 05:33N 54°14' W 130°42'1211.7
2015-Feb-21 04:32N 54°16' W 130°21'2 2.1
2015-Feb-21 03:33N 54°18' W 130°21'10 9.9
2015-Feb-21 02:33N 54°15' W 130°38'1 1.1
2015-Feb-21 01:33N 54°15' W 130°39'1110.7
2015-Feb-21 00:33N 54°18' W 130°21'0 0.0
2015-Feb-20 23:33N 54°18' W 130°21'0 0.0
2015-Feb-20 22:33N 54°18' W 130°21'0 0.0
2015-Feb-20 21:33N 54°18' W 130°21'0 0.0
2015-Feb-20 20:33N 54°18' W 130°21'1 0.7
2015-Feb-20 19:33N 54°18' W 130°21'1 1.5
2015-Feb-20 18:33N 54°19' W 130°19'2 2.1
2015-Feb-20 17:33N 54°18' W 130°21'6 6.1
2015-Feb-20 16:33N 54°14' W 130°30'10 8.0
2015-Feb-20 15:20N 54°16' W 130°47'2 2.1
2015-Feb-20 14:31N 54°16' W 130°44'5 5.3
2015-Feb-20 13:33N 54°14' W 130°35'9 4.5
2015-Feb-20 11:33N 54°18' W 130°21'1010.1
2015-Feb-20 10:32N 54°14' W 130°38'1 1.3
2015-Feb-20 09:33N 54°16' W 130°39'8 8.3
2015-Feb-20 08:33N 54°20' W 130°27'0 0.0
2015-Feb-20 07:33N 54°20' W 130°27'7 7.3
2015-Feb-20 06:32N 54°16' W 130°37'3 1.6
2015-Feb-20 04:31N 54°16' W 130°43'1313.0
2015-Feb-20 03:33N 54°18' W 130°21'0 0.0
2015-Feb-20 02:33N 54°18' W 130°21'0 0.0
2015-Feb-20 01:33N 54°18' W 130°21'0 0.0
2015-Feb-20 00:33N 54°18' W 130°21'0 0.0
2015-Feb-19 23:33N 54°18' W 130°21'0 0.0
2015-Feb-19 22:33N 54°18' W 130°21'0 0.0
2015-Feb-19 21:33N 54°18' W 130°21'4 3.8
2015-Feb-19 20:33N 54°20' W 130°27'1210.9
2015-Feb-19 19:26N 54°17' W 130°47'1416.2
2015-Feb-19 18:33N 54°17' W 130°22'0 0.3
2015-Feb-19 17:33N 54°18' W 130°21'0 0.0
2015-Feb-19 16:33N 54°18' W 130°21'0 0.0
2015-Feb-19 15:33N 54°18' W 130°21'0 0.0
2015-Feb-19 14:33N 54°18' W 130°21'0 0.0
2015-Feb-19 13:33N 54°18' W 130°21'0 0.0
2015-Feb-19 12:33N 54°18' W 130°21'0 0.0
2015-Feb-19 11:33N 54°18' W 130°21'0 0.0
2015-Feb-19 10:33N 54°18' W 130°21'0 0.0
2015-Feb-19 09:33N 54°18' W 130°21'0 0.0
2015-Feb-19 08:33N 54°18' W 130°21'0 0.0
2015-Feb-19 07:33N 54°18' W 130°21'0 0.0
2015-Feb-19 06:33N 54°18' W 130°21'0 0.0
2015-Feb-19 05:33N 54°18' W 130°21'7 3.6
2015-Feb-19 03:33N 54°14' W 130°32'7 7.3
2015-Feb-19 02:33N 54°18' W 130°21'0 0.0
2015-Feb-19 01:33N 54°18' W 130°21'0 0.0
2015-Feb-19 00:33N 54°18' W 130°21'2 2.0
2015-Feb-18 23:33N 54°19' W 130°19'9 9.1
2015-Feb-18 22:33N 54°18' W 130°35'8 2.4
2015-Feb-18 19:04N 54°18' W 130°49'714.4
2015-Feb-18 18:33N 54°16' W 130°37'9 9.5
2015-Feb-18 17:33N 54°18' W 130°21'0 0.0
2015-Feb-18 16:33N 54°18' W 130°21'0 0.0
2015-Feb-18 15:33N 54°18' W 130°21'0 0.0
2015-Feb-18 14:33N 54°18' W 130°21'0 0.0
2015-Feb-18 13:33N 54°18' W 130°21'0 0.0
2015-Feb-18 12:33N 54°18' W 130°21'0 0.0
2015-Feb-18 11:33N 54°18' W 130°21'7 6.6
2015-Feb-18 10:33N 54°14' W 130°31'7 6.7
2015-Feb-18 09:29N 54°17' W 130°42'1213.0
2015-Feb-18 08:33N 54°18' W 130°21'0 0.0
2015-Feb-18 07:33N 54°18' W 130°21'0 0.0
2015-Feb-18 06:34N 54°18' W 130°21'0 0.0
2015-Feb-18 05:33N 54°18' W 130°21'0 0.0
2015-Feb-18 04:33N 54°18' W 130°21'0 0.0
2015-Feb-18 03:33N 54°18' W 130°21'0 0.0
2015-Feb-18 02:33N 54°18' W 130°21'0 0.0
2015-Feb-18 01:33N 54°18' W 130°21'0 0.0
2015-Feb-18 00:33N 54°18' W 130°21'0 0.0
2015-Feb-17 23:33N 54°18' W 130°21'5 4.9
2015-Feb-17 22:32N 54°14' W 130°27'9 9.1
2015-Feb-17 21:33N 54°16' W 130°42'1211.9
2015-Feb-17 20:33N 54°17' W 130°22'1 1.2
2015-Feb-17 19:33N 54°18' W 130°21'0 0.0
2015-Feb-17 17:33N 54°18' W 130°21'0 0.0
2015-Feb-17 16:33N 54°18' W 130°21'0 0.0
2015-Feb-17 15:33N 54°18' W 130°21'9 3.9
2015-Feb-17 13:22N 54°10' W 130°28'11 5.7
2015-Feb-17 11:30N 54°16' W 130°43'1313.2
2015-Feb-17 10:33N 54°18' W 130°21'0 0.0
2015-Feb-17 09:33N 54°18' W 130°21'0 0.0
2015-Feb-17 08:33N 54°18' W 130°21'0 0.0
2015-Feb-17 07:33N 54°18' W 130°21'0 0.0
2015-Feb-17 06:33N 54°18' W 130°21'0 0.0
2015-Feb-17 05:33N 54°18' W 130°21'0 0.0
2015-Feb-17 04:33N 54°18' W 130°21'0 0.0
2015-Feb-17 03:33N 54°18' W 130°21'0 0.0
2015-Feb-17 02:33N 54°18' W 130°21'0 0.0
2015-Feb-17 01:33N 54°18' W 130°21'0 0.0
2015-Feb-17 00:33N 54°18' W 130°21'0 0.0
2015-Feb-16 23:33N 54°18' W 130°21'0 0.0
2015-Feb-16 22:33N 54°18' W 130°21'0 0.0
2015-Feb-16 21:33N 54°18' W 130°21'0 0.0
2015-Feb-16 20:33N 54°18' W 130°21'2 1.9
2015-Feb-16 19:33N 54°19' W 130°24'2 1.8
2015-Feb-16 18:33N 54°18' W 130°21'5 5.1
2015-Feb-16 17:33N 54°14' W 130°27'1212.1
2015-Feb-16 16:32N 54°17' W 130°47'1515.4
2015-Feb-16 15:33N 54°18' W 130°21'0 0.0
2015-Feb-16 14:33N 54°18' W 130°21'0 0.0
2015-Feb-16 13:33N 54°18' W 130°21'0 0.0
2015-Feb-16 12:33N 54°18' W 130°21'0 0.0
2015-Feb-16 11:33N 54°18' W 130°21'0 0.0
2015-Feb-16 10:33N 54°18' W 130°21'0 0.0
2015-Feb-16 09:33N 54°18' W 130°21'0 0.0
2015-Feb-16 08:33N 54°18' W 130°21'0 0.0
2015-Feb-16 07:33N 54°18' W 130°21'0 0.0
2015-Feb-16 06:33N 54°18' W 130°21'0 0.0
2015-Feb-16 05:33N 54°18' W 130°21'0 0.0
2015-Feb-16 04:33N 54°18' W 130°21'0 0.0
2015-Feb-16 03:33N 54°18' W 130°21'0 0.0
2015-Feb-16 02:33N 54°18' W 130°21'0 0.0
2015-Feb-16 01:33N 54°18' W 130°21'0 0.0
2015-Feb-16 00:33N 54°18' W 130°21'0 0.0
2015-Feb-15 23:33N 54°18' W 130°21'0 0.0
2015-Feb-15 22:33N 54°18' W 130°21'0 0.0
2015-Feb-15 21:32N 54°18' W 130°21'0 0.0
2015-Feb-15 20:33N 54°18' W 130°21'0 0.0
2015-Feb-15 19:33N 54°18' W 130°21'0 0.0
2015-Feb-15 18:33N 54°18' W 130°21'0 0.0
2015-Feb-15 17:33N 54°18' W 130°21'0 0.0
2015-Feb-15 16:33N 54°18' W 130°21'0 0.0
2015-Feb-15 15:33N 54°18' W 130°21'0 0.0
2015-Feb-15 14:33N 54°18' W 130°21'0 0.0
2015-Feb-15 13:33N 54°18' W 130°21'1514.4
2015-Feb-15 12:33N 54°19' W 130°46'8 8.2
2015-Feb-15 11:33N 54°14' W 130°35'  

Dump ship's entire track history